sensor_id;sensor_type;location;lat;lon;timestamp;temperature;humidity
8892;DHT22;4482;54.332;10.118;2023-05-27T00:00:30;10.00;99.90
8892;DHT22;4482;54.332;10.118;2023-05-27T00:02:58;10.00;99.90
8892;DHT22;4482;54.332;10.118;2023-05-27T00:05:25;10.00;99.90
8892;DHT22;4482;54.332;10.118;2023-05-27T00:07:52;10.00;99.90
8892;DHT22;4482;54.332;10.118;2023-05-27T00:10:18;10.00;99.90
8892;DHT22;4482;54.332;10.118;2023-05-27T00:12:45;9.90;99.90
8892;DHT22;4482;54.332;10.118;2023-05-27T00:15:13;9.90;99.90
8892;DHT22;4482;54.332;10.118;2023-05-27T00:17:40;9.80;99.90
8892;DHT22;4482;54.332;10.118;2023-05-27T00:20:08;9.80;99.90
8892;DHT22;4482;54.332;10.118;2023-05-27T00:22:35;9.80;99.90
8892;DHT22;4482;54.332;10.118;2023-05-27T00:25:02;9.70;99.90
8892;DHT22;4482;54.332;10.118;2023-05-27T00:27:29;9.80;99.90
8892;DHT22;4482;54.332;10.118;2023-05-27T00:29:55;9.70;99.90
8892;DHT22;4482;54.332;10.118;2023-05-27T00:32:23;9.70;99.90
8892;DHT22;4482;54.332;10.118;2023-05-27T00:34:50;9.70;99.90
8892;DHT22;4482;54.332;10.118;2023-05-27T00:37:17;9.70;99.90
8892;DHT22;4482;54.332;10.118;2023-05-27T00:39:43;9.70;99.90
8892;DHT22;4482;54.332;10.118;2023-05-27T00:42:10;9.70;99.90
8892;DHT22;4482;54.332;10.118;2023-05-27T00:44:37;9.70;99.90
8892;DHT22;4482;54.332;10.118;2023-05-27T00:47:03;9.60;99.90
8892;DHT22;4482;54.332;10.118;2023-05-27T00:49:32;9.60;99.90
8892;DHT22;4482;54.332;10.118;2023-05-27T00:51:58;9.60;99.90
8892;DHT22;4482;54.332;10.118;2023-05-27T00:54:25;9.60;99.90
8892;DHT22;4482;54.332;10.118;2023-05-27T00:56:52;9.50;99.90
8892;DHT22;4482;54.332;10.118;2023-05-27T00:59:19;9.50;99.90
8892;DHT22;4482;54.332;10.118;2023-05-27T01:01:46;9.50;99.90
8892;DHT22;4482;54.332;10.118;2023-05-27T01:04:14;9.50;99.90
8892;DHT22;4482;54.332;10.118;2023-05-27T01:06:45;9.40;99.90
8892;DHT22;4482;54.332;10.118;2023-05-27T01:09:16;9.40;99.90
8892;DHT22;4482;54.332;10.118;2023-05-27T01:11:45;9.30;99.90
8892;DHT22;4482;54.332;10.118;2023-05-27T01:14:14;9.30;99.90
8892;DHT22;4482;54.332;10.118;2023-05-27T01:16:41;9.30;99.90
8892;DHT22;4482;54.332;10.118;2023-05-27T01:19:12;9.30;99.90
8892;DHT22;4482;54.332;10.118;2023-05-27T01:21:39;9.30;99.90
8892;DHT22;4482;54.332;10.118;2023-05-27T01:24:11;9.30;99.90
8892;DHT22;4482;54.332;10.118;2023-05-27T01:26:38;9.20;99.90
8892;DHT22;4482;54.332;10.118;2023-05-27T01:29:05;9.20;99.90
8892;DHT22;4482;54.332;10.118;2023-05-27T01:31:34;9.20;99.90
8892;DHT22;4482;54.332;10.118;2023-05-27T01:34:03;9.20;99.90
8892;DHT22;4482;54.332;10.118;2023-05-27T01:36:33;9.30;99.90
8892;DHT22;4482;54.332;10.118;2023-05-27T01:39:02;9.30;99.90
8892;DHT22;4482;54.332;10.118;2023-05-27T01:41:31;9.20;99.90
8892;DHT22;4482;54.332;10.118;2023-05-27T01:43:58;9.20;99.90
8892;DHT22;4482;54.332;10.118;2023-05-27T01:46:26;9.20;99.90
8892;DHT22;4482;54.332;10.118;2023-05-27T01:48:52;9.20;99.90
8892;DHT22;4482;54.332;10.118;2023-05-27T01:51:19;9.10;99.90
8892;DHT22;4482;54.332;10.118;2023-05-27T01:53:45;9.10;99.90
8892;DHT22;4482;54.332;10.118;2023-05-27T01:56:12;9.20;99.90
8892;DHT22;4482;54.332;10.118;2023-05-27T01:58:40;9.10;99.90
8892;DHT22;4482;54.332;10.118;2023-05-27T02:01:07;9.00;99.90
8892;DHT22;4482;54.332;10.118;2023-05-27T02:03:33;9.00;99.90
8892;DHT22;4482;54.332;10.118;2023-05-27T02:06:00;9.00;99.90
8892;DHT22;4482;54.332;10.118;2023-05-27T02:08:26;9.00;99.90
8892;DHT22;4482;54.332;10.118;2023-05-27T02:10:53;8.90;99.90
8892;DHT22;4482;54.332;10.118;2023-05-27T02:13:20;9.00;99.90
8892;DHT22;4482;54.332;10.118;2023-05-27T02:15:48;8.90;99.90
8892;DHT22;4482;54.332;10.118;2023-05-27T02:18:14;9.10;99.90
8892;DHT22;4482;54.332;10.118;2023-05-27T02:20:41;9.00;99.90
8892;DHT22;4482;54.332;10.118;2023-05-27T02:23:07;9.00;99.90
8892;DHT22;4482;54.332;10.118;2023-05-27T02:25:34;8.80;99.90
8892;DHT22;4482;54.332;10.118;2023-05-27T02:28:01;8.80;99.90
8892;DHT22;4482;54.332;10.118;2023-05-27T02:30:28;8.70;99.90
8892;DHT22;4482;54.332;10.118;2023-05-27T02:32:57;8.60;99.90
8892;DHT22;4482;54.332;10.118;2023-05-27T02:35:24;8.60;99.90
8892;DHT22;4482;54.332;10.118;2023-05-27T02:37:51;8.60;99.90
8892;DHT22;4482;54.332;10.118;2023-05-27T02:40:24;8.60;99.90
8892;DHT22;4482;54.332;10.118;2023-05-27T02:42:51;8.60;99.90
8892;DHT22;4482;54.332;10.118;2023-05-27T02:45:17;8.60;99.90
8892;DHT22;4482;54.332;10.118;2023-05-27T02:47:44;8.60;99.90
8892;DHT22;4482;54.332;10.118;2023-05-27T02:50:12;8.50;99.90
8892;DHT22;4482;54.332;10.118;2023-05-27T02:52:39;8.50;99.90
8892;DHT22;4482;54.332;10.118;2023-05-27T02:55:06;8.40;99.90
8892;DHT22;4482;54.332;10.118;2023-05-27T02:57:33;8.40;99.90
8892;DHT22;4482;54.332;10.118;2023-05-27T03:00:00;8.40;99.90
8892;DHT22;4482;54.332;10.118;2023-05-27T03:02:27;8.50;99.90
8892;DHT22;4482;54.332;10.118;2023-05-27T03:04:53;8.50;99.90
8892;DHT22;4482;54.332;10.118;2023-05-27T03:07:22;8.50;99.90
8892;DHT22;4482;54.332;10.118;2023-05-27T03:09:48;8.40;99.90
8892;DHT22;4482;54.332;10.118;2023-05-27T03:12:15;8.40;99.90
8892;DHT22;4482;54.332;10.118;2023-05-27T03:14:42;8.40;99.90
8892;DHT22;4482;54.332;10.118;2023-05-27T03:17:08;8.40;99.90
8892;DHT22;4482;54.332;10.118;2023-05-27T03:19:38;8.40;99.90
8892;DHT22;4482;54.332;10.118;2023-05-27T03:22:04;8.40;99.90
8892;DHT22;4482;54.332;10.118;2023-05-27T03:24:33;8.40;99.90
8892;DHT22;4482;54.332;10.118;2023-05-27T03:27:00;8.50;99.90
8892;DHT22;4482;54.332;10.118;2023-05-27T03:29:28;8.50;99.90
8892;DHT22;4482;54.332;10.118;2023-05-27T03:31:56;8.40;99.90
8892;DHT22;4482;54.332;10.118;2023-05-27T03:34:22;8.40;99.90
8892;DHT22;4482;54.332;10.118;2023-05-27T03:36:49;8.50;99.90
8892;DHT22;4482;54.332;10.118;2023-05-27T03:39:16;8.50;99.90
8892;DHT22;4482;54.332;10.118;2023-05-27T03:41:44;8.50;99.90
8892;DHT22;4482;54.332;10.118;2023-05-27T03:44:10;8.50;99.90
8892;DHT22;4482;54.332;10.118;2023-05-27T03:46:37;8.60;99.90
8892;DHT22;4482;54.332;10.118;2023-05-27T03:49:04;8.60;99.90
8892;DHT22;4482;54.332;10.118;2023-05-27T03:51:30;8.60;99.90
8892;DHT22;4482;54.332;10.118;2023-05-27T03:53:57;8.60;99.90
8892;DHT22;4482;54.332;10.118;2023-05-27T03:56:24;8.60;99.90
8892;DHT22;4482;54.332;10.118;2023-05-27T03:58:52;8.60;99.90
8892;DHT22;4482;54.332;10.118;2023-05-27T04:01:19;8.70;99.90
8892;DHT22;4482;54.332;10.118;2023-05-27T04:03:46;8.70;99.90
8892;DHT22;4482;54.332;10.118;2023-05-27T04:06:13;8.70;99.90
8892;DHT22;4482;54.332;10.118;2023-05-27T04:08:39;8.80;99.90
8892;DHT22;4482;54.332;10.118;2023-05-27T04:11:09;8.90;99.90
8892;DHT22;4482;54.332;10.118;2023-05-27T04:13:36;8.90;99.90
8892;DHT22;4482;54.332;10.118;2023-05-27T04:16:04;9.00;99.90
8892;DHT22;4482;54.332;10.118;2023-05-27T04:18:32;9.10;99.90
8892;DHT22;4482;54.332;10.118;2023-05-27T04:20:59;9.10;99.90
8892;DHT22;4482;54.332;10.118;2023-05-27T04:23:25;9.20;99.90
8892;DHT22;4482;54.332;10.118;2023-05-27T04:25:52;9.30;99.90
8892;DHT22;4482;54.332;10.118;2023-05-27T04:28:18;9.40;99.90
8892;DHT22;4482;54.332;10.118;2023-05-27T04:30:45;9.40;99.90
8892;DHT22;4482;54.332;10.118;2023-05-27T04:33:16;9.50;99.90
8892;DHT22;4482;54.332;10.118;2023-05-27T04:35:43;9.60;99.90
8892;DHT22;4482;54.332;10.118;2023-05-27T04:38:10;9.60;99.90
8892;DHT22;4482;54.332;10.118;2023-05-27T04:40:41;9.60;99.90
8892;DHT22;4482;54.332;10.118;2023-05-27T04:43:10;9.70;99.90
8892;DHT22;4482;54.332;10.118;2023-05-27T04:45:39;9.80;99.90
8892;DHT22;4482;54.332;10.118;2023-05-27T04:48:06;9.90;99.90
8892;DHT22;4482;54.332;10.118;2023-05-27T04:50:34;10.10;99.90
8892;DHT22;4482;54.332;10.118;2023-05-27T04:53:01;10.20;99.90
8892;DHT22;4482;54.332;10.118;2023-05-27T04:55:28;10.40;99.90
8892;DHT22;4482;54.332;10.118;2023-05-27T04:57:54;10.50;99.90
8892;DHT22;4482;54.332;10.118;2023-05-27T05:00:22;10.60;99.90
8892;DHT22;4482;54.332;10.118;2023-05-27T05:03:04;10.80;99.90
8892;DHT22;4482;54.332;10.118;2023-05-27T05:05:31;10.90;99.90
8892;DHT22;4482;54.332;10.118;2023-05-27T05:07:59;11.10;99.90
8892;DHT22;4482;54.332;10.118;2023-05-27T05:10:25;11.40;99.90
8892;DHT22;4482;54.332;10.118;2023-05-27T05:12:52;11.70;99.90
8892;DHT22;4482;54.332;10.118;2023-05-27T05:15:19;11.90;99.90
8892;DHT22;4482;54.332;10.118;2023-05-27T05:17:46;12.00;99.90
8892;DHT22;4482;54.332;10.118;2023-05-27T05:20:12;12.40;99.90
8892;DHT22;4482;54.332;10.118;2023-05-27T05:22:39;12.60;99.90
8892;DHT22;4482;54.332;10.118;2023-05-27T05:25:07;12.80;99.90
8892;DHT22;4482;54.332;10.118;2023-05-27T05:27:34;13.10;99.90
8892;DHT22;4482;54.332;10.118;2023-05-27T05:30:02;13.40;99.90
8892;DHT22;4482;54.332;10.118;2023-05-27T05:32:28;13.80;99.90
8892;DHT22;4482;54.332;10.118;2023-05-27T05:34:55;13.70;99.90
8892;DHT22;4482;54.332;10.118;2023-05-27T05:37:22;13.90;99.90
8892;DHT22;4482;54.332;10.118;2023-05-27T05:39:49;14.10;99.90
8892;DHT22;4482;54.332;10.118;2023-05-27T05:42:17;14.40;99.90
8892;DHT22;4482;54.332;10.118;2023-05-27T05:44:43;14.40;99.90
8892;DHT22;4482;54.332;10.118;2023-05-27T05:47:10;14.60;99.90
8892;DHT22;4482;54.332;10.118;2023-05-27T05:49:37;14.70;99.90
8892;DHT22;4482;54.332;10.118;2023-05-27T05:52:03;14.80;99.90
8892;DHT22;4482;54.332;10.118;2023-05-27T05:54:30;14.80;99.90
8892;DHT22;4482;54.332;10.118;2023-05-27T05:56:57;15.00;99.90
8892;DHT22;4482;54.332;10.118;2023-05-27T05:59:25;14.90;99.90
8892;DHT22;4482;54.332;10.118;2023-05-27T06:01:51;15.10;99.90
8892;DHT22;4482;54.332;10.118;2023-05-27T06:04:18;15.40;99.90
8892;DHT22;4482;54.332;10.118;2023-05-27T06:06:45;15.40;99.90
8892;DHT22;4482;54.332;10.118;2023-05-27T06:09:11;15.60;99.90
8892;DHT22;4482;54.332;10.118;2023-05-27T06:11:38;15.50;99.90
8892;DHT22;4482;54.332;10.118;2023-05-27T06:14:04;15.50;99.90
8892;DHT22;4482;54.332;10.118;2023-05-27T06:16:33;15.60;99.90
8892;DHT22;4482;54.332;10.118;2023-05-27T06:19:01;15.50;99.90
8892;DHT22;4482;54.332;10.118;2023-05-27T06:21:27;15.60;99.90
8892;DHT22;4482;54.332;10.118;2023-05-27T06:23:57;15.70;99.90
8892;DHT22;4482;54.332;10.118;2023-05-27T06:26:23;16.10;99.90
8892;DHT22;4482;54.332;10.118;2023-05-27T06:28:51;16.00;99.90
8892;DHT22;4482;54.332;10.118;2023-05-27T06:31:17;16.30;99.90
8892;DHT22;4482;54.332;10.118;2023-05-27T06:33:45;16.50;99.90
8892;DHT22;4482;54.332;10.118;2023-05-27T06:36:12;16.70;99.90
8892;DHT22;4482;54.332;10.118;2023-05-27T06:38:38;16.80;99.90
8892;DHT22;4482;54.332;10.118;2023-05-27T06:41:05;17.10;99.90
8892;DHT22;4482;54.332;10.118;2023-05-27T06:43:33;17.30;99.90
8892;DHT22;4482;54.332;10.118;2023-05-27T06:45:59;17.20;99.90
8892;DHT22;4482;54.332;10.118;2023-05-27T06:48:27;17.40;99.90
8892;DHT22;4482;54.332;10.118;2023-05-27T06:50:54;17.40;99.90
8892;DHT22;4482;54.332;10.118;2023-05-27T06:53:21;17.90;99.90
8892;DHT22;4482;54.332;10.118;2023-05-27T06:55:48;18.20;99.90
8892;DHT22;4482;54.332;10.118;2023-05-27T06:58:14;18.50;99.90
8892;DHT22;4482;54.332;10.118;2023-05-27T07:00:41;18.60;99.90
8892;DHT22;4482;54.332;10.118;2023-05-27T07:03:08;18.70;99.90
8892;DHT22;4482;54.332;10.118;2023-05-27T07:05:34;18.90;99.90
8892;DHT22;4482;54.332;10.118;2023-05-27T07:08:03;19.20;99.90
8892;DHT22;4482;54.332;10.118;2023-05-27T07:10:30;19.40;99.90
8892;DHT22;4482;54.332;10.118;2023-05-27T07:12:56;19.70;99.90
8892;DHT22;4482;54.332;10.118;2023-05-27T07:15:24;20.00;99.90
8892;DHT22;4482;54.332;10.118;2023-05-27T07:17:52;20.30;99.90
8892;DHT22;4482;54.332;10.118;2023-05-27T07:20:19;20.70;99.90
8892;DHT22;4482;54.332;10.118;2023-05-27T07:22:46;20.80;99.90
8892;DHT22;4482;54.332;10.118;2023-05-27T07:25:14;20.60;99.90
8892;DHT22;4482;54.332;10.118;2023-05-27T07:27:40;21.20;99.90
8892;DHT22;4482;54.332;10.118;2023-05-27T07:30:07;21.20;99.90
8892;DHT22;4482;54.332;10.118;2023-05-27T07:32:34;20.80;99.90
8892;DHT22;4482;54.332;10.118;2023-05-27T07:35:01;20.00;99.90
8892;DHT22;4482;54.332;10.118;2023-05-27T07:37:28;19.80;99.90
8892;DHT22;4482;54.332;10.118;2023-05-27T07:39:55;19.30;99.90
8892;DHT22;4482;54.332;10.118;2023-05-27T07:42:23;18.80;99.90
8892;DHT22;4482;54.332;10.118;2023-05-27T07:44:50;20.10;99.90
8892;DHT22;4482;54.332;10.118;2023-05-27T07:47:17;21.80;99.90
8892;DHT22;4482;54.332;10.118;2023-05-27T07:49:43;22.90;97.00
8892;DHT22;4482;54.332;10.118;2023-05-27T07:52:10;22.20;96.10
8892;DHT22;4482;54.332;10.118;2023-05-27T07:54:36;22.80;95.50
8892;DHT22;4482;54.332;10.118;2023-05-27T07:57:03;22.70;94.10
8892;DHT22;4482;54.332;10.118;2023-05-27T07:59:33;21.60;95.00
8892;DHT22;4482;54.332;10.118;2023-05-27T08:01:59;20.80;95.70
8892;DHT22;4482;54.332;10.118;2023-05-27T08:04:26;20.10;97.30
8892;DHT22;4482;54.332;10.118;2023-05-27T08:06:53;20.90;97.00
8892;DHT22;4482;54.332;10.118;2023-05-27T08:09:19;22.40;95.80
8892;DHT22;4482;54.332;10.118;2023-05-27T08:11:46;24.50;92.10
8892;DHT22;4482;54.332;10.118;2023-05-27T08:14:12;25.90;87.80
8892;DHT22;4482;54.332;10.118;2023-05-27T08:16:42;27.20;82.30
8892;DHT22;4482;54.332;10.118;2023-05-27T08:19:09;28.50;73.40
8892;DHT22;4482;54.332;10.118;2023-05-27T08:21:36;28.70;67.90
8892;DHT22;4482;54.332;10.118;2023-05-27T08:24:02;29.20;65.30
8892;DHT22;4482;54.332;10.118;2023-05-27T08:26:30;28.90;61.20
8892;DHT22;4482;54.332;10.118;2023-05-27T08:28:57;27.30;62.90
8892;DHT22;4482;54.332;10.118;2023-05-27T08:31:23;25.20;65.50
8892;DHT22;4482;54.332;10.118;2023-05-27T08:33:51;24.10;71.70
8892;DHT22;4482;54.332;10.118;2023-05-27T08:36:18;24.30;71.30
8892;DHT22;4482;54.332;10.118;2023-05-27T08:38:45;24.10;72.00
8892;DHT22;4482;54.332;10.118;2023-05-27T08:41:12;24.70;71.80
8892;DHT22;4482;54.332;10.118;2023-05-27T08:43:39;24.10;71.20
8892;DHT22;4482;54.332;10.118;2023-05-27T08:46:06;22.50;74.80
8892;DHT22;4482;54.332;10.118;2023-05-27T08:48:33;21.90;77.60
8892;DHT22;4482;54.332;10.118;2023-05-27T08:51:01;21.90;79.60
8892;DHT22;4482;54.332;10.118;2023-05-27T08:53:29;23.90;78.20
8892;DHT22;4482;54.332;10.118;2023-05-27T08:55:57;26.30;70.80
8892;DHT22;4482;54.332;10.118;2023-05-27T08:58:24;28.50;65.70
8892;DHT22;4482;54.332;10.118;2023-05-27T09:00:51;29.00;60.30
8892;DHT22;4482;54.332;10.118;2023-05-27T09:03:17;29.30;57.30
8892;DHT22;4482;54.332;10.118;2023-05-27T09:05:44;30.10;55.60
8892;DHT22;4482;54.332;10.118;2023-05-27T09:08:12;29.60;54.70
8892;DHT22;4482;54.332;10.118;2023-05-27T09:10:40;29.70;54.70
8892;DHT22;4482;54.332;10.118;2023-05-27T09:13:08;29.30;53.20
8892;DHT22;4482;54.332;10.118;2023-05-27T09:15:34;28.50;54.20
8892;DHT22;4482;54.332;10.118;2023-05-27T09:18:01;29.10;53.80
8892;DHT22;4482;54.332;10.118;2023-05-27T09:20:28;30.10;51.60
8892;DHT22;4482;54.332;10.118;2023-05-27T09:22:56;30.30;50.80
8892;DHT22;4482;54.332;10.118;2023-05-27T09:25:24;30.10;49.30
8892;DHT22;4482;54.332;10.118;2023-05-27T09:27:51;29.90;49.60
8892;DHT22;4482;54.332;10.118;2023-05-27T09:30:19;29.20;50.70
8892;DHT22;4482;54.332;10.118;2023-05-27T09:32:46;27.60;50.90
8892;DHT22;4482;54.332;10.118;2023-05-27T09:35:14;25.90;54.40
8892;DHT22;4482;54.332;10.118;2023-05-27T09:37:41;26.30;56.10
8892;DHT22;4482;54.332;10.118;2023-05-27T09:40:11;27.90;51.90
8892;DHT22;4482;54.332;10.118;2023-05-27T09:42:41;28.10;52.30
8892;DHT22;4482;54.332;10.118;2023-05-27T09:45:08;28.60;51.90
8892;DHT22;4482;54.332;10.118;2023-05-27T09:47:37;28.60;51.60
8892;DHT22;4482;54.332;10.118;2023-05-27T09:50:05;29.00;50.20
8892;DHT22;4482;54.332;10.118;2023-05-27T09:52:34;29.50;48.20
8892;DHT22;4482;54.332;10.118;2023-05-27T09:55:02;30.00;47.50
8892;DHT22;4482;54.332;10.118;2023-05-27T09:57:29;30.40;44.60
8892;DHT22;4482;54.332;10.118;2023-05-27T09:59:58;30.30;44.50
8892;DHT22;4482;54.332;10.118;2023-05-27T10:02:25;31.00;41.20
8892;DHT22;4482;54.332;10.118;2023-05-27T10:04:52;30.50;40.00
8892;DHT22;4482;54.332;10.118;2023-05-27T10:07:19;30.10;42.00
8892;DHT22;4482;54.332;10.118;2023-05-27T10:09:48;30.70;41.10
8892;DHT22;4482;54.332;10.118;2023-05-27T10:12:16;31.10;40.70
8892;DHT22;4482;54.332;10.118;2023-05-27T10:14:43;30.90;39.60
8892;DHT22;4482;54.332;10.118;2023-05-27T10:17:13;31.10;38.10
8892;DHT22;4482;54.332;10.118;2023-05-27T10:19:52;31.10;37.60
8892;DHT22;4482;54.332;10.118;2023-05-27T10:22:20;30.50;37.10
8892;DHT22;4482;54.332;10.118;2023-05-27T10:24:47;30.40;36.20
8892;DHT22;4482;54.332;10.118;2023-05-27T10:27:15;30.10;37.30
8892;DHT22;4482;54.332;10.118;2023-05-27T10:29:42;30.40;37.40
8892;DHT22;4482;54.332;10.118;2023-05-27T10:32:08;30.40;37.60
8892;DHT22;4482;54.332;10.118;2023-05-27T10:34:37;30.60;37.40
8892;DHT22;4482;54.332;10.118;2023-05-27T10:37:03;30.90;35.10
8892;DHT22;4482;54.332;10.118;2023-05-27T10:39:30;31.10;33.20
8892;DHT22;4482;54.332;10.118;2023-05-27T10:41:57;30.60;33.20
8892;DHT22;4482;54.332;10.118;2023-05-27T10:44:26;30.50;30.90
8892;DHT22;4482;54.332;10.118;2023-05-27T10:46:58;30.40;31.80
8892;DHT22;4482;54.332;10.118;2023-05-27T10:49:25;30.40;31.70
8892;DHT22;4482;54.332;10.118;2023-05-27T10:51:54;30.10;32.20
8892;DHT22;4482;54.332;10.118;2023-05-27T10:54:24;30.10;32.20
8892;DHT22;4482;54.332;10.118;2023-05-27T10:56:51;30.70;30.60
8892;DHT22;4482;54.332;10.118;2023-05-27T10:59:19;31.30;29.50
8892;DHT22;4482;54.332;10.118;2023-05-27T11:01:47;31.50;28.50
8892;DHT22;4482;54.332;10.118;2023-05-27T11:04:16;31.40;25.30
8892;DHT22;4482;54.332;10.118;2023-05-27T11:06:45;31.10;25.70
8892;DHT22;4482;54.332;10.118;2023-05-27T11:09:23;31.20;27.50
8892;DHT22;4482;54.332;10.118;2023-05-27T11:11:50;30.90;27.30
8892;DHT22;4482;54.332;10.118;2023-05-27T11:14:16;30.90;27.30
8892;DHT22;4482;54.332;10.118;2023-05-27T11:16:45;31.10;26.90
8892;DHT22;4482;54.332;10.118;2023-05-27T11:19:12;31.20;27.30
8892;DHT22;4482;54.332;10.118;2023-05-27T11:21:43;31.20;28.30
8892;DHT22;4482;54.332;10.118;2023-05-27T11:24:13;31.10;28.90
8892;DHT22;4482;54.332;10.118;2023-05-27T11:26:43;31.50;28.60
8892;DHT22;4482;54.332;10.118;2023-05-27T11:29:10;31.80;26.60
8892;DHT22;4482;54.332;10.118;2023-05-27T11:31:37;31.40;27.20
8892;DHT22;4482;54.332;10.118;2023-05-27T11:34:10;31.50;26.00
8892;DHT22;4482;54.332;10.118;2023-05-27T11:36:37;31.50;26.90
8892;DHT22;4482;54.332;10.118;2023-05-27T11:39:04;31.80;27.20
8892;DHT22;4482;54.332;10.118;2023-05-27T11:41:32;31.00;30.40
8892;DHT22;4482;54.332;10.118;2023-05-27T11:44:00;29.60;31.80
8892;DHT22;4482;54.332;10.118;2023-05-27T11:46:33;29.30;31.70
8892;DHT22;4482;54.332;10.118;2023-05-27T11:49:00;29.80;32.50
8892;DHT22;4482;54.332;10.118;2023-05-27T11:51:28;29.50;33.20
8892;DHT22;4482;54.332;10.118;2023-05-27T11:53:55;28.70;33.50
8892;DHT22;4482;54.332;10.118;2023-05-27T11:56:22;25.70;34.80
8892;DHT22;4482;54.332;10.118;2023-05-27T11:58:50;23.60;39.10
8892;DHT22;4482;54.332;10.118;2023-05-27T12:01:18;22.00;44.70
8892;DHT22;4482;54.332;10.118;2023-05-27T12:03:45;21.10;49.00
8892;DHT22;4482;54.332;10.118;2023-05-27T12:06:11;20.30;51.10
8892;DHT22;4482;54.332;10.118;2023-05-27T12:08:38;19.60;53.60
8892;DHT22;4482;54.332;10.118;2023-05-27T12:11:05;19.00;59.80
8892;DHT22;4482;54.332;10.118;2023-05-27T12:13:31;18.70;64.20
8892;DHT22;4482;54.332;10.118;2023-05-27T12:15:58;18.60;70.30
8892;DHT22;4482;54.332;10.118;2023-05-27T12:18:26;18.30;75.90
8892;DHT22;4482;54.332;10.118;2023-05-27T12:20:53;18.30;79.80
8892;DHT22;4482;54.332;10.118;2023-05-27T12:23:20;18.40;81.20
8892;DHT22;4482;54.332;10.118;2023-05-27T12:25:46;18.40;79.60
8892;DHT22;4482;54.332;10.118;2023-05-27T12:28:13;18.30;80.40
8892;DHT22;4482;54.332;10.118;2023-05-27T12:30:40;18.10;82.50
8892;DHT22;4482;54.332;10.118;2023-05-27T12:33:06;18.00;82.80
8892;DHT22;4482;54.332;10.118;2023-05-27T12:35:34;17.90;84.30
8892;DHT22;4482;54.332;10.118;2023-05-27T12:38:01;17.80;83.80
8892;DHT22;4482;54.332;10.118;2023-05-27T12:40:27;17.70;84.30
8892;DHT22;4482;54.332;10.118;2023-05-27T12:42:54;17.60;85.20
8892;DHT22;4482;54.332;10.118;2023-05-27T12:45:21;17.70;85.50
8892;DHT22;4482;54.332;10.118;2023-05-27T12:47:49;17.80;86.10
8892;DHT22;4482;54.332;10.118;2023-05-27T12:50:16;17.90;86.40
8892;DHT22;4482;54.332;10.118;2023-05-27T12:52:44;17.90;85.20
8892;DHT22;4482;54.332;10.118;2023-05-27T12:55:12;17.90;85.50
8892;DHT22;4482;54.332;10.118;2023-05-27T12:57:39;17.80;85.50
8892;DHT22;4482;54.332;10.118;2023-05-27T13:00:06;17.80;85.90
8892;DHT22;4482;54.332;10.118;2023-05-27T13:02:33;17.70;86.90
8892;DHT22;4482;54.332;10.118;2023-05-27T13:04:59;17.70;86.80
8892;DHT22;4482;54.332;10.118;2023-05-27T13:07:26;17.60;87.40
8892;DHT22;4482;54.332;10.118;2023-05-27T13:09:55;17.60;86.70
8892;DHT22;4482;54.332;10.118;2023-05-27T13:12:22;17.60;85.50
8892;DHT22;4482;54.332;10.118;2023-05-27T13:14:49;17.60;84.90
8892;DHT22;4482;54.332;10.118;2023-05-27T13:17:16;17.60;84.20
8892;DHT22;4482;54.332;10.118;2023-05-27T13:19:43;17.60;84.10
8892;DHT22;4482;54.332;10.118;2023-05-27T13:22:10;17.50;81.70
8892;DHT22;4482;54.332;10.118;2023-05-27T13:24:36;17.50;79.50
8892;DHT22;4482;54.332;10.118;2023-05-27T13:27:05;17.50;80.90
8892;DHT22;4482;54.332;10.118;2023-05-27T13:29:32;17.60;81.10
8892;DHT22;4482;54.332;10.118;2023-05-27T13:31:58;17.60;81.40
8892;DHT22;4482;54.332;10.118;2023-05-27T13:34:25;17.60;79.90
8892;DHT22;4482;54.332;10.118;2023-05-27T13:36:53;17.50;79.50
8892;DHT22;4482;54.332;10.118;2023-05-27T13:39:19;17.50;79.00
8892;DHT22;4482;54.332;10.118;2023-05-27T13:41:46;17.40;76.90
8892;DHT22;4482;54.332;10.118;2023-05-27T13:44:14;17.50;75.70
8892;DHT22;4482;54.332;10.118;2023-05-27T13:46:40;17.50;73.80
8892;DHT22;4482;54.332;10.118;2023-05-27T13:49:07;17.60;72.50
8892;DHT22;4482;54.332;10.118;2023-05-27T13:51:41;17.60;68.50
8892;DHT22;4482;54.332;10.118;2023-05-27T13:54:08;17.50;66.30
8892;DHT22;4482;54.332;10.118;2023-05-27T13:56:35;17.50;67.40
8892;DHT22;4482;54.332;10.118;2023-05-27T13:59:01;17.50;67.30
8892;DHT22;4482;54.332;10.118;2023-05-27T14:01:30;17.40;67.20
8892;DHT22;4482;54.332;10.118;2023-05-27T14:03:56;17.30;68.30
8892;DHT22;4482;54.332;10.118;2023-05-27T14:06:23;17.30;67.20
8892;DHT22;4482;54.332;10.118;2023-05-27T14:08:50;17.40;67.90
8892;DHT22;4482;54.332;10.118;2023-05-27T14:11:17;17.40;65.10
8892;DHT22;4482;54.332;10.118;2023-05-27T14:13:43;17.20;64.80
8892;DHT22;4482;54.332;10.118;2023-05-27T14:16:11;17.20;66.30
8892;DHT22;4482;54.332;10.118;2023-05-27T14:18:39;17.30;64.50
8892;DHT22;4482;54.332;10.118;2023-05-27T14:21:06;17.30;65.30
8892;DHT22;4482;54.332;10.118;2023-05-27T14:23:33;17.40;65.60
8892;DHT22;4482;54.332;10.118;2023-05-27T14:26:00;17.40;66.50
8892;DHT22;4482;54.332;10.118;2023-05-27T14:28:26;17.40;67.10
8892;DHT22;4482;54.332;10.118;2023-05-27T14:30:53;17.50;67.30
8892;DHT22;4482;54.332;10.118;2023-05-27T14:33:20;17.40;67.10
8892;DHT22;4482;54.332;10.118;2023-05-27T14:35:50;17.40;66.70
8892;DHT22;4482;54.332;10.118;2023-05-27T14:38:17;17.30;67.70
8892;DHT22;4482;54.332;10.118;2023-05-27T14:40:44;17.40;69.70
8892;DHT22;4482;54.332;10.118;2023-05-27T14:43:11;17.30;70.80
8892;DHT22;4482;54.332;10.118;2023-05-27T14:45:39;17.30;70.90
8892;DHT22;4482;54.332;10.118;2023-05-27T14:48:06;17.20;72.50
8892;DHT22;4482;54.332;10.118;2023-05-27T14:50:33;17.20;72.40
8892;DHT22;4482;54.332;10.118;2023-05-27T14:53:01;17.20;73.00
8892;DHT22;4482;54.332;10.118;2023-05-27T14:55:28;17.20;73.40
8892;DHT22;4482;54.332;10.118;2023-05-27T14:57:54;17.20;73.50
8892;DHT22;4482;54.332;10.118;2023-05-27T15:00:21;17.30;73.80
8892;DHT22;4482;54.332;10.118;2023-05-27T15:02:48;17.30;73.90
8892;DHT22;4482;54.332;10.118;2023-05-27T15:05:14;17.40;73.70
8892;DHT22;4482;54.332;10.118;2023-05-27T15:07:41;17.40;73.70
8892;DHT22;4482;54.332;10.118;2023-05-27T15:10:09;17.40;73.40
8892;DHT22;4482;54.332;10.118;2023-05-27T15:12:39;17.40;73.70
8892;DHT22;4482;54.332;10.118;2023-05-27T15:15:07;17.40;74.70
8892;DHT22;4482;54.332;10.118;2023-05-27T15:17:34;17.50;74.30
8892;DHT22;4482;54.332;10.118;2023-05-27T15:20:01;17.50;73.80
8892;DHT22;4482;54.332;10.118;2023-05-27T15:22:28;17.50;73.10
8892;DHT22;4482;54.332;10.118;2023-05-27T15:24:54;17.40;73.60
8892;DHT22;4482;54.332;10.118;2023-05-27T15:27:22;17.50;73.50
8892;DHT22;4482;54.332;10.118;2023-05-27T15:29:49;17.40;73.00
8892;DHT22;4482;54.332;10.118;2023-05-27T15:32:15;17.30;73.00
8892;DHT22;4482;54.332;10.118;2023-05-27T15:34:42;17.20;72.80
8892;DHT22;4482;54.332;10.118;2023-05-27T15:37:09;17.20;73.20
8892;DHT22;4482;54.332;10.118;2023-05-27T15:39:36;17.10;73.90
8892;DHT22;4482;54.332;10.118;2023-05-27T15:42:02;17.10;74.50
8892;DHT22;4482;54.332;10.118;2023-05-27T15:44:31;17.20;74.60
8892;DHT22;4482;54.332;10.118;2023-05-27T15:47:00;17.20;74.60
8892;DHT22;4482;54.332;10.118;2023-05-27T15:49:27;17.20;75.10